CheckWX is a tool to help pilots better visualize weather data.  It is not intended as a substitute for an official pre-flight weather briefing.

22:20:26 UTC

KBGR TAF
Bangor International Airport
Bangor, Maine, USA
KBGR 191720Z 1918/2018 31010KT P6SM FEW100 FM200500 29003KT P6SM FEW100 FM200600 00000KT P6SM FEW100

Oct-19@
18:00 UTC

Oct-19 @ 18:00 UTC

Oct-20@
05:00 UTC

Oct-20 @ 05:00 UTC

KBGR 191720Z 1918/2018 31010KT P6SM FEW100
Wind
  • 310° at 10 KTS
Cloud Levels
  • Few at 10,000' AGL

Oct-20@
05:00 UTC

Oct-20 @ 05:00 UTC

Oct-20@
06:00 UTC

Oct-20 @ 06:00 UTC

FM200500 29003KT P6SM FEW100

From

From Standard forecast or significant change

Wind
  • 290° at 3 KTS
Cloud Levels
  • Few at 10,000' AGL

Oct-20@
06:00 UTC

Oct-20 @ 06:00 UTC

Oct-20@
18:00 UTC

Oct-20 @ 18:00 UTC

FM200600 00000KT P6SM FEW100

From

From Standard forecast or significant change

Cloud Levels
  • Few at 10,000' AGL